TimeMDT,TemperatureF,Dew PointF,Humidity,Sea Level PressureIn,VisibilityMPH,Wind Direction,Wind SpeedMPH,Gust SpeedMPH,PrecipitationIn,Events,Conditions,WindDirDegrees,DateUTC
12:53 AM,27.0,21.9,81,30.24,10.0,NW,8.1,-,N/A,,Clear,310,2013-10-16 06:53:00
1:53 AM,28.9,23.0,78,30.21,10.0,Calm,Calm,-,N/A,,Clear,0,2013-10-16 07:53:00
2:53 AM,27.0,21.9,81,30.21,10.0,Calm,Calm,-,N/A,,Clear,0,2013-10-16 08:53:00
3:53 AM,27.0,21.9,81,30.18,10.0,Calm,Calm,-,N/A,,Clear,0,2013-10-16 09:53:00
4:53 AM,26.1,21.9,84,30.18,10.0,WSW,4.6,-,N/A,,Clear,240,2013-10-16 10:53:00
5:53 AM,26.1,21.9,84,30.17,10.0,West,3.5,-,N/A,,Clear,270,2013-10-16 11:53:00
6:53 AM,26.1,21.0,81,30.17,10.0,Calm,Calm,-,N/A,,Clear,0,2013-10-16 12:53:00
7:53 AM,26.1,21.0,81,30.18,10.0,Calm,Calm,-,N/A,,Clear,0,2013-10-16 13:53:00
8:53 AM,32.0,25.0,75,30.17,10.0,Calm,Calm,-,N/A,,Clear,0,2013-10-16 14:53:00
9:53 AM,32.0,27.0,82,30.18,10.0,ENE,3.5,-,N/A,,Clear,70,2013-10-16 15:53:00
10:53 AM,36.0,28.0,73,30.16,10.0,ENE,4.6,-,N/A,,Clear,60,2013-10-16 16:53:00
11:53 AM,39.9,26.1,58,30.14,10.0,Calm,Calm,-,N/A,,Clear,0,2013-10-16 17:53:00
12:53 PM,43.0,25.0,49,30.11,10.0,Calm,Calm,-,N/A,,Clear,0,2013-10-16 18:53:00
1:53 PM,46.0,23.0,40,30.06,10.0,SSE,4.6,-,N/A,,Clear,160,2013-10-16 19:53:00
2:53 PM,48.0,24.1,39,30.04,10.0,Calm,Calm,-,N/A,,Clear,0,2013-10-16 20:53:00
3:53 PM,48.9,21.9,35,30.04,10.0,East,5.8,-,N/A,,Clear,80,2013-10-16 21:53:00
4:53 PM,48.0,21.0,34,30.04,10.0,NE,5.8,-,N/A,,Clear,50,2013-10-16 22:53:00
5:53 PM,44.1,25.0,47,30.06,10.0,NNE,9.2,-,N/A,,Clear,30,2013-10-16 23:53:00
6:53 PM,42.1,26.1,53,30.08,10.0,NNE,5.8,-,N/A,,Clear,20,2013-10-17 00:53:00
7:53 PM,42.1,26.1,53,30.09,10.0,NNW,3.5,-,N/A,,Mostly Cloudy,340,2013-10-17 01:53:00
8:53 PM,39.0,27.0,62,30.10,10.0,NW,3.5,-,N/A,,Clear,310,2013-10-17 02:53:00
9:53 PM,37.0,27.0,67,30.13,10.0,Calm,Calm,-,N/A,,Mostly Cloudy,0,2013-10-17 03:53:00
10:53 PM,39.9,26.1,58,30.11,10.0,North,9.2,-,N/A,,Overcast,10,2013-10-17 04:53:00
11:53 PM,37.9,27.0,65,30.10,10.0,North,11.5,-,N/A,,Overcast,10,2013-10-17 05:53:00